Time;durP1;ratioP1;P1;durP2;ratioP2;P2;SDS_P1;SDS_P2;PMS_P1;PMS_P2;Temp;Humidity;BMP_temperature;BMP_pressure;BME280_temperature;BME280_humidity;BME280_pressure;Samples;Min_cycle;Max_cycle;Signal;HPM_P1;HPM_P2
2022/04/09 00:00:34;;;;;;;3.88;0.70;;;5.80;99.90;;;;;;4919046;29;20047;-78
2022/04/09 00:02:59;;;;;;;2.72;0.60;;;5.80;99.90;;;;;;4919057;29;20127;-77
2022/04/09 00:05:26;;;;;;;8.90;1.67;;;5.90;99.90;;;;;;4918479;29;20403;-78
2022/04/09 00:07:52;;;;;;;8.10;1.08;;;5.90;99.90;;;;;;4918831;29;20047;-78
2022/04/09 00:10:18;;;;;;;4.32;0.90;;;5.90;99.90;;;;;;4901661;29;20052;-77
2022/04/09 00:12:47;;;;;;;3.67;1.13;;;6.00;99.90;;;;;;4901635;29;20488;-78
2022/04/09 00:15:14;;;;;;;9.00;1.10;;;6.00;99.90;;;;;;4901629;29;20056;-77
2022/04/09 00:17:41;;;;;;;2.90;0.73;;;6.00;99.90;;;;;;4918821;29;20134;-78
2022/04/09 00:20:11;;;;;;;7.13;1.20;;;6.00;99.90;;;;;;4918559;29;20544;-77
2022/04/09 00:22:38;;;;;;;9.20;0.85;;;6.00;99.90;;;;;;4901485;29;20080;-77
2022/04/09 00:25:06;;;;;;;3.92;0.80;;;6.00;99.90;;;;;;4918232;29;20511;-77
2022/04/09 00:27:31;;;;;;;3.45;0.82;;;6.10;99.90;;;;;;4918356;29;20492;-77
2022/04/09 00:29:57;;;;;;;6.40;1.48;;;6.00;99.90;;;;;;4918592;29;20055;-78
2022/04/09 00:32:23;;;;;;;4.93;0.80;;;6.00;99.90;;;;;;4918465;29;20047;-77
2022/04/09 00:34:48;;;;;;;3.15;0.55;;;6.00;99.90;;;;;;4918186;29;20048;-77
2022/04/09 00:37:14;;;;;;;4.97;1.00;;;6.00;99.90;;;;;;4918709;29;20047;-78
2022/04/09 00:39:40;;;;;;;10.82;1.55;;;6.00;99.90;;;;;;4918014;29;20476;-77
2022/04/09 00:42:16;;;;;;;5.75;0.93;;;6.00;99.90;;;;;;4918766;29;20621;-78
2022/04/09 00:44:42;;;;;;;6.68;1.30;;;6.00;99.90;;;;;;4918635;29;20047;-77
2022/04/09 00:47:09;;;;;;;4.57;0.98;;;6.00;99.90;;;;;;4901927;29;20105;-80
2022/04/09 00:49:37;;;;;;;7.07;1.27;;;6.10;99.90;;;;;;4919402;29;20079;-79
2022/04/09 00:52:04;;;;;;;5.43;0.95;;;6.10;99.90;;;;;;4918998;29;20055;-80
2022/04/09 00:54:35;;;;;;;8.77;1.50;;;6.10;99.90;;;;;;4918825;29;20045;-79
2022/04/09 00:57:05;;;;;;;2.28;0.82;;;6.10;99.90;;;;;;4918944;29;20493;-79
2022/04/09 00:59:32;;;;;;;3.85;1.17;;;6.10;99.90;;;;;;4902142;29;20396;-79
2022/04/09 01:01:57;;;;;;;3.28;0.90;;;6.10;99.90;;;;;;4918685;29;20056;-79
2022/04/09 01:04:23;;;;;;;6.22;0.95;;;6.10;99.90;;;;;;4918003;29;20129;-77
2022/04/09 01:06:51;;;;;;;6.70;1.08;;;6.10;99.90;;;;;;4920006;29;20040;-77
2022/04/09 01:09:16;;;;;;;4.65;0.93;;;6.10;99.90;;;;;;4922135;29;20059;-77
2022/04/09 01:11:42;;;;;;;10.95;1.45;;;6.10;99.90;;;;;;4904883;29;20044;-78
2022/04/09 01:14:09;;;;;;;5.38;0.85;;;6.10;99.90;;;;;;4904937;29;20048;-78
2022/04/09 01:16:35;;;;;;;8.32;0.95;;;6.10;99.90;;;;;;4904820;29;20060;-77
2022/04/09 01:19:01;;;;;;;7.57;1.63;;;6.10;99.90;;;;;;4922051;29;20039;-77
2022/04/09 01:21:28;;;;;;;4.82;0.90;;;6.10;99.90;;;;;;4904727;29;20415;-77
2022/04/09 01:23:54;;;;;;;6.43;0.88;;;6.10;99.90;;;;;;4904947;29;20055;-78
2022/04/09 01:26:20;;;;;;;4.72;0.60;;;6.10;99.90;;;;;;4921871;29;20076;-77
2022/04/09 01:28:47;;;;;;;3.80;0.90;;;6.10;99.90;;;;;;4921951;29;20099;-77
2022/04/09 01:31:13;;;;;;;4.43;0.73;;;6.10;99.90;;;;;;4922145;29;20040;-78
2022/04/09 01:33:39;;;;;;;5.47;0.85;;;6.10;99.90;;;;;;4905411;29;20076;-78
2022/04/09 01:36:05;;;;;;;8.30;0.85;;;6.00;99.90;;;;;;4921431;29;20107;-78
2022/04/09 01:38:31;;;;;;;5.70;1.00;;;6.00;99.90;;;;;;4921536;29;20044;-78
2022/04/09 01:40:57;;;;;;;6.57;1.75;;;6.00;99.90;;;;;;4921200;29;20191;-77
2022/04/09 01:43:23;;;;;;;4.30;0.82;;;6.00;99.90;;;;;;4921400;29;20052;-77
2022/04/09 01:45:48;;;;;;;16.45;1.60;;;6.00;99.90;;;;;;4904407;29;20484;-77
2022/04/09 01:48:14;;;;;;;9.45;1.00;;;6.00;99.90;;;;;;4904356;29;20048;-77
2022/04/09 01:50:40;;;;;;;6.53;0.80;;;6.00;99.90;;;;;;4921440;29;20048;-77
2022/04/09 01:53:06;;;;;;;3.90;1.00;;;6.00;99.90;;;;;;4921263;29;20555;-77
2022/04/09 01:55:32;;;;;;;6.28;1.00;;;6.00;99.90;;;;;;4921088;29;20048;-77
2022/04/09 01:57:59;;;;;;;5.80;0.80;;;6.00;99.90;;;;;;4921237;29;20059;-77
2022/04/09 02:00:25;;;;;;;2.65;0.82;;;6.00;99.90;;;;;;4903565;29;20059;-78
2022/04/09 02:02:51;;;;;;;7.75;1.17;;;5.80;99.90;;;;;;4920667;29;20058;-78
2022/04/09 02:05:18;;;;;;;5.28;2.40;;;5.40;99.90;;;;;;4921098;29;20100;-78
2022/04/09 02:07:45;;;;;;;8.32;1.00;;;5.40;99.90;;;;;;4921307;29;20060;-78
2022/04/09 02:10:11;;;;;;;3.47;1.15;;;5.20;99.90;;;;;;4921314;29;20083;-78
2022/04/09 02:12:37;;;;;;;10.70;1.70;;;5.20;99.90;;;;;;4921580;29;20088;-78
2022/04/09 02:15:08;;;;;;;7.55;1.02;;;5.10;99.90;;;;;;4921653;29;20196;-78
2022/04/09 02:17:35;;;;;;;8.60;1.45;;;5.20;99.90;;;;;;4920915;29;20041;-78
2022/04/09 02:20:02;;;;;;;15.10;2.03;;;5.20;99.90;;;;;;4921481;29;20044;-78
2022/04/09 02:22:34;;;;;;;13.63;1.80;;;5.20;99.90;;;;;;4904325;29;20044;-78
2022/04/09 02:24:59;;;;;;;8.35;1.40;;;5.30;99.90;;;;;;4921398;29;20048;-78
2022/04/09 02:27:25;;;;;;;5.80;1.10;;;5.40;99.90;;;;;;4920963;29;20265;-78
2022/04/09 02:29:50;;;;;;;8.13;1.38;;;5.40;99.90;;;;;;4921250;29;20059;-78
2022/04/09 02:32:16;;;;;;;13.43;2.45;;;5.50;99.90;;;;;;4904392;29;20051;-78
2022/04/09 02:34:42;;;;;;;4.78;0.70;;;5.60;99.90;;;;;;4903686;29;20464;-78
2022/04/09 02:37:07;;;;;;;3.13;0.82;;;5.60;99.90;;;;;;4904185;29;20087;-78
2022/04/09 02:39:33;;;;;;;7.50;1.27;;;5.70;99.90;;;;;;4920912;29;20040;-79
2022/04/09 02:41:59;;;;;;;5.05;1.00;;;5.70;99.90;;;;;;4903682;29;20060;-78
2022/04/09 02:44:24;;;;;;;12.30;2.85;;;5.70;99.90;;;;;;4920951;29;20055;-79
2022/04/09 02:46:50;;;;;;;12.05;2.00;;;5.70;99.90;;;;;;4904235;29;20087;-81
2022/04/09 02:49:16;;;;;;;5.55;0.85;;;5.70;99.90;;;;;;4903758;29;20044;-80
2022/04/09 02:51:43;;;;;;;5.60;1.02;;;5.70;99.90;;;;;;4904070;29;20495;-80
2022/04/09 02:54:15;;;;;;;8.00;1.33;;;5.80;99.90;;;;;;4920262;29;20554;-79
2022/04/09 02:56:44;;;;;;;6.30;1.50;;;5.80;99.90;;;;;;4921001;29;20057;-80
2022/04/09 02:59:13;;;;;;;6.40;1.60;;;5.80;99.90;;;;;;4904011;29;20171;-80
2022/04/09 03:01:41;;;;;;;7.90;1.20;;;5.90;99.90;;;;;;4920703;29;20059;-80
2022/04/09 03:04:07;;;;;;;6.05;1.17;;;5.90;99.90;;;;;;4920713;29;20044;-80
2022/04/09 03:06:33;;;;;;;9.45;1.17;;;5.90;99.90;;;;;;4920715;29;20055;-81
2022/04/09 03:08:59;;;;;;;12.60;1.25;;;5.90;99.90;;;;;;4920850;29;20046;-80
2022/04/09 03:11:25;;;;;;;13.85;1.45;;;5.90;99.90;;;;;;4903430;29;20126;-80
2022/04/09 03:13:50;;;;;;;10.63;1.10;;;6.00;99.90;;;;;;4920458;29;20119;-80
2022/04/09 03:16:16;;;;;;;5.07;1.00;;;6.00;99.90;;;;;;4903813;29;20048;-80
2022/04/09 03:18:42;;;;;;;7.32;0.98;;;6.00;99.90;;;;;;4920469;29;20452;-80
2022/04/09 03:21:07;;;;;;;12.48;1.38;;;6.00;99.90;;;;;;4903662;29;20059;-80
2022/04/09 03:23:33;;;;;;;11.07;1.08;;;6.00;99.90;;;;;;4903278;29;20047;-80
2022/04/09 03:25:59;;;;;;;3.70;1.10;;;6.00;99.90;;;;;;4904112;29;20055;-80
2022/04/09 03:28:24;;;;;;;6.03;0.98;;;6.00;99.90;;;;;;4902753;29;20542;-80
2022/04/09 03:30:50;;;;;;;7.00;2.17;;;6.00;99.90;;;;;;4920120;29;20503;-80
2022/04/09 03:33:17;;;;;;;5.00;1.02;;;6.00;99.90;;;;;;4903274;29;20063;-79
2022/04/09 03:35:42;;;;;;;13.48;2.35;;;6.00;99.90;;;;;;4903247;29;20047;-80
2022/04/09 03:38:11;;;;;;;12.25;1.25;;;6.00;99.90;;;;;;4920095;29;20380;-79
2022/04/09 03:40:38;;;;;;;12.75;2.20;;;6.00;99.90;;;;;;4919874;29;20059;-79
2022/04/09 03:43:04;;;;;;;17.52;1.90;;;6.00;99.90;;;;;;4919748;29;20048;-79
2022/04/09 03:45:29;;;;;;;4.55;1.00;;;5.80;99.90;;;;;;4902669;29;20055;-79
2022/04/09 03:47:55;;;;;;;8.95;1.08;;;5.70;99.90;;;;;;4919629;29;20055;-79
2022/04/09 03:50:21;;;;;;;2.25;0.75;;;5.70;99.90;;;;;;4919739;29;20548;-79
2022/04/09 03:52:46;;;;;;;5.10;0.73;;;5.70;99.90;;;;;;4903208;29;20051;-80
2022/04/09 03:55:13;;;;;;;1.58;0.43;;;5.70;99.90;;;;;;4919536;29;20075;-80
2022/04/09 03:57:39;;;;;;;7.72;0.73;;;5.70;99.90;;;;;;4919690;29;20047;-80
2022/04/09 04:00:05;;;;;;;2.40;0.60;;;5.70;99.90;;;;;;4902559;29;20095;-79
2022/04/09 04:02:31;;;;;;;7.35;1.02;;;5.70;99.90;;;;;;4902954;29;20103;-80
2022/04/09 04:05:02;;;;;;;1.58;0.52;;;5.60;99.90;;;;;;4919454;29;20052;-80
2022/04/09 04:07:28;;;;;;;3.58;0.98;;;5.60;99.90;;;;;;4919383;29;20142;-79
2022/04/09 04:09:54;;;;;;;6.82;0.98;;;5.60;99.90;;;;;;4919574;29;20070;-79
2022/04/09 04:12:19;;;;;;;8.10;1.52;;;5.60;99.90;;;;;;4919537;29;20040;-80
2022/04/09 04:14:45;;;;;;;7.03;1.25;;;5.70;99.90;;;;;;4902341;29;20131;-81
2022/04/09 04:17:12;;;;;;;9.95;1.60;;;5.70;99.90;;;;;;4902877;29;20051;-81
2022/04/09 04:19:39;;;;;;;6.45;1.23;;;5.70;99.90;;;;;;4919272;29;20035;-80
2022/04/09 04:22:05;;;;;;;4.50;0.80;;;5.70;99.90;;;;;;4902719;29;20071;-81
2022/04/09 04:24:30;;;;;;;4.68;1.05;;;5.70;99.90;;;;;;4919970;29;20152;-80
2022/04/09 04:26:56;;;;;;;9.25;1.40;;;5.80;99.90;;;;;;4902638;29;20060;-80
2022/04/09 04:29:22;;;;;;;5.13;0.82;;;5.80;99.90;;;;;;4902634;29;20062;-80
2022/04/09 04:31:47;;;;;;;3.80;0.77;;;5.80;99.90;;;;;;4919334;29;20052;-81
2022/04/09 04:34:13;;;;;;;6.97;1.10;;;5.90;99.90;;;;;;4919438;29;20048;-80
2022/04/09 04:36:39;;;;;;;17.90;2.38;;;5.80;99.90;;;;;;4919567;29;20377;-80
2022/04/09 04:39:05;;;;;;;8.75;1.63;;;5.90;99.90;;;;;;4902093;29;20123;-81
2022/04/09 04:41:30;;;;;;;8.73;1.10;;;5.80;99.90;;;;;;4918761;29;20572;-80
2022/04/09 04:43:56;;;;;;;10.93;1.65;;;5.80;99.90;;;;;;4919014;29;20052;-80
2022/04/09 04:46:21;;;;;;;5.78;0.95;;;5.90;99.90;;;;;;4901419;29;20052;-80
2022/04/09 04:48:47;;;;;;;11.90;1.63;;;5.90;99.90;;;;;;4900460;29;20441;-79
2022/04/09 04:51:13;;;;;;;7.63;1.65;;;5.90;99.90;;;;;;4901898;29;20492;-79
2022/04/09 04:53:38;;;;;;;11.05;1.40;;;6.00;99.90;;;;;;4918817;29;20051;-79
2022/04/09 04:56:04;;;;;;;4.57;1.00;;;6.00;99.90;;;;;;4918699;29;20076;-80
2022/04/09 04:58:30;;;;;;;4.63;1.05;;;5.90;99.90;;;;;;4902166;29;20096;-80
2022/04/09 05:00:56;;;;;;;5.13;1.25;;;5.90;99.90;;;;;;4901534;29;20098;-80
2022/04/09 05:03:22;;;;;;;10.82;1.02;;;6.00;99.90;;;;;;4918672;29;20099;-80
2022/04/09 05:05:48;;;;;;;10.23;1.52;;;6.00;99.90;;;;;;4918928;29;20052;-80
2022/04/09 05:08:13;;;;;;;3.15;1.00;;;6.00;99.90;;;;;;4918873;29;20212;-79
2022/04/09 05:10:39;;;;;;;6.55;1.00;;;5.90;99.90;;;;;;4918726;29;20056;-79
2022/04/09 05:13:05;;;;;;;2.67;0.73;;;5.70;99.90;;;;;;4901509;29;20052;-79
2022/04/09 05:15:31;;;;;;;3.80;0.73;;;5.50;99.90;;;;;;4918160;29;20096;-79
2022/04/09 05:17:57;;;;;;;8.63;0.90;;;5.50;99.90;;;;;;4918242;29;20130;-79
2022/04/09 05:20:23;;;;;;;4.78;0.63;;;5.40;99.90;;;;;;4901588;29;20072;-80
2022/04/09 05:22:49;;;;;;;5.07;0.68;;;5.20;99.90;;;;;;4918562;29;20336;-79
2022/04/09 05:25:21;;;;;;;5.85;1.10;;;5.10;99.90;;;;;;4918562;29;20514;-79
2022/04/09 05:27:50;;;;;;;6.82;1.42;;;5.10;99.90;;;;;;4901666;29;20381;-80
2022/04/09 05:30:16;;;;;;;10.00;2.10;;;5.20;99.90;;;;;;4918415;29;20048;-80
2022/04/09 05:32:43;;;;;;;12.07;1.40;;;5.30;99.90;;;;;;4918118;29;20408;-80
2022/04/09 05:35:09;;;;;;;9.50;1.67;;;5.40;99.90;;;;;;4901447;29;20063;-80
2022/04/09 05:37:35;;;;;;;5.75;1.25;;;5.60;99.90;;;;;;4918574;29;20139;-80
2022/04/09 05:40:02;;;;;;;10.20;1.35;;;5.80;99.90;;;;;;4918379;29;20083;-79
2022/04/09 05:42:28;;;;;;;10.30;1.83;;;5.90;99.90;;;;;;4901208;29;20052;-79
2022/04/09 05:44:53;;;;;;;6.90;1.25;;;6.00;99.90;;;;;;4901373;29;20107;-79
2022/04/09 05:47:19;;;;;;;10.35;1.85;;;6.10;99.90;;;;;;4900453;29;20109;-79
2022/04/09 05:49:45;;;;;;;7.88;1.30;;;6.10;99.90;;;;;;4918140;29;20055;-79
2022/04/09 05:52:10;;;;;;;15.55;2.17;;;6.10;99.90;;;;;;4918275;29;20492;-80
2022/04/09 05:54:36;;;;;;;7.40;1.45;;;6.00;99.90;;;;;;4904110;29;20114;-80
2022/04/09 05:57:03;;;;;;;8.20;1.40;;;5.90;99.90;;;;;;4921409;29;20052;-79
2022/04/09 05:59:30;;;;;;;8.07;2.85;;;5.80;99.90;;;;;;4904892;29;20493;-79
2022/04/09 06:01:56;;;;;;;10.02;1.48;;;5.90;99.90;;;;;;4921388;29;20392;-79
2022/04/09 06:04:22;;;;;;;13.65;1.60;;;6.00;99.90;;;;;;4920501;29;20114;-79
2022/04/09 06:06:48;;;;;;;16.48;2.90;;;6.00;99.90;;;;;;4920706;29;20551;-80
2022/04/09 06:09:14;;;;;;;7.53;1.45;;;6.10;99.90;;;;;;4920732;29;20058;-80
2022/04/09 06:11:41;;;;;;;9.52;1.67;;;6.10;99.90;;;;;;4920712;29;20176;-80
2022/04/09 06:14:08;;;;;;;10.32;1.50;;;6.20;99.90;;;;;;4920334;29;20052;-80
2022/04/09 06:16:38;;;;;;;9.93;1.90;;;6.30;99.90;;;;;;4921466;29;20063;-80
2022/04/09 06:19:04;;;;;;;8.02;1.67;;;6.30;99.90;;;;;;4904103;29;20044;-80
2022/04/09 06:21:30;;;;;;;4.78;1.05;;;6.30;99.90;;;;;;4921446;29;20118;-80
2022/04/09 06:23:56;;;;;;;10.55;1.30;;;6.30;99.90;;;;;;4904114;29;20092;-80
2022/04/09 06:26:22;;;;;;;9.48;1.33;;;6.20;99.90;;;;;;4919661;29;20492;-79
2022/04/09 06:28:48;;;;;;;6.70;1.73;;;6.20;99.90;;;;;;4920542;29;20209;-79
2022/04/09 06:31:13;;;;;;;15.07;2.72;;;6.20;99.90;;;;;;4921095;29;20063;-79
2022/04/09 06:33:39;;;;;;;12.13;1.40;;;6.20;99.90;;;;;;4921098;29;20116;-80
2022/04/09 06:36:05;;;;;;;5.07;0.85;;;6.30;99.90;;;;;;4921092;29;20548;-79
2022/04/09 06:38:33;;;;;;;9.10;1.95;;;6.40;99.90;;;;;;4921083;29;20047;-79
2022/04/09 06:40:59;;;;;;;7.85;1.10;;;6.40;99.90;;;;;;4919821;29;20064;-79
2022/04/09 06:43:26;;;;;;;7.55;1.20;;;6.40;99.90;;;;;;4902725;29;20059;-79
2022/04/09 06:45:52;;;;;;;6.30;1.42;;;6.30;99.90;;;;;;4919787;29;20040;-79
2022/04/09 06:48:18;;;;;;;7.78;1.30;;;6.40;99.90;;;;;;4903590;29;20048;-79
2022/04/09 06:50:43;;;;;;;4.75;1.15;;;6.40;99.90;;;;;;4920069;29;20048;-79
2022/04/09 06:53:09;;;;;;;6.57;1.00;;;6.50;99.90;;;;;;4902108;29;20048;-79
2022/04/09 06:55:35;;;;;;;9.15;1.63;;;6.60;99.90;;;;;;4901989;29;20052;-80
2022/04/09 06:58:01;;;;;;;4.43;1.00;;;6.80;99.90;;;;;;4902047;29;20052;-80
2022/04/09 07:00:28;;;;;;;6.13;1.75;;;6.90;99.90;;;;;;4918888;29;20051;-79
2022/04/09 07:02:53;;;;;;;6.05;1.10;;;7.00;99.90;;;;;;4902219;29;20481;-80
2022/04/09 07:05:19;;;;;;;6.07;0.70;;;7.10;99.90;;;;;;4902539;29;20040;-79
2022/04/09 07:07:48;;;;;;;8.38;1.65;;;7.20;99.90;;;;;;4892844;29;20064;-80
2022/04/09 07:10:15;;;;;;;13.20;1.25;;;7.30;99.90;;;;;;4889518;29;20049;-79
2022/04/09 07:12:40;;;;;;;9.13;1.88;;;7.40;99.90;;;;;;4882300;29;20480;-78
2022/04/09 07:15:07;;;;;;;12.45;1.25;;;7.40;99.90;;;;;;4882388;29;20532;-79
2022/04/09 07:17:32;;;;;;;11.35;1.45;;;7.50;99.90;;;;;;4881124;29;20454;-79
2022/04/09 07:20:05;;;;;;;10.20;3.35;;;7.60;99.90;;;;;;4880407;29;20053;-79
2022/04/09 07:22:32;;;;;;;12.80;2.47;;;7.70;99.90;;;;;;4881839;29;20049;-79
2022/04/09 07:24:58;;;;;;;12.90;2.22;;;7.80;99.90;;;;;;4882147;29;20077;-79
2022/04/09 07:27:41;;;;;;;11.70;1.58;;;7.80;99.90;;;;;;4880799;29;20049;-80
2022/04/09 07:30:12;;;;;;;6.47;1.20;;;7.80;99.90;;;;;;4881247;29;20128;-79
2022/04/09 07:32:39;;;;;;;15.88;3.15;;;7.90;99.90;;;;;;4881824;29;20500;-77
2022/04/09 07:35:05;;;;;;;10.70;1.85;;;7.90;99.90;;;;;;4882109;29;20057;-79
2022/04/09 07:37:31;;;;;;;10.63;2.83;;;7.80;99.90;;;;;;4881428;29;20485;-80
2022/04/09 07:39:58;;;;;;;8.85;2.88;;;7.60;99.90;;;;;;4885337;29;20065;-80
2022/04/09 07:42:24;;;;;;;10.50;1.77;;;7.60;99.90;;;;;;4883915;29;20057;-78
2022/04/09 07:44:49;;;;;;;8.50;1.50;;;7.50;99.90;;;;;;4883520;29;20445;-80
2022/04/09 07:47:16;;;;;;;10.68;1.50;;;7.60;99.90;;;;;;4883849;29;20052;-80
2022/04/09 07:49:46;;;;;;;12.23;2.75;;;7.70;99.90;;;;;;4884161;29;20052;-80
2022/04/09 07:52:12;;;;;;;8.23;1.02;;;7.60;99.90;;;;;;4883465;29;20420;-78
2022/04/09 07:54:38;;;;;;;7.30;1.40;;;7.60;99.90;;;;;;4900433;29;20515;-78
2022/04/09 07:57:04;;;;;;;11.02;1.75;;;7.60;99.90;;;;;;4883713;29;20048;-78
2022/04/09 07:59:30;;;;;;;10.73;1.77;;;7.60;99.90;;;;;;4883770;29;20592;-80
2022/04/09 08:01:55;;;;;;;7.93;1.83;;;7.80;99.90;;;;;;4909204;29;20123;-82
2022/04/09 08:04:21;;;;;;;11.13;1.80;;;8.00;99.90;;;;;;4902324;29;20119;-80
2022/04/09 08:06:47;;;;;;;6.40;1.35;;;8.10;99.90;;;;;;4919284;29;20048;-80
2022/04/09 08:09:12;;;;;;;11.75;2.47;;;8.30;99.90;;;;;;4902211;29;20044;-81
2022/04/09 08:11:38;;;;;;;8.98;2.63;;;8.40;99.90;;;;;;4919293;29;20048;-81
2022/04/09 08:14:04;;;;;;;8.25;1.77;;;8.50;99.90;;;;;;4901994;29;20087;-80
2022/04/09 08:16:29;;;;;;;8.90;1.63;;;8.50;99.90;;;;;;4901613;29;20403;-81
2022/04/09 08:18:55;;;;;;;14.35;2.03;;;8.60;99.90;;;;;;4902082;29;20048;-80
2022/04/09 08:21:21;;;;;;;12.25;1.80;;;8.70;99.90;;;;;;4901997;29;20059;-80
2022/04/09 08:23:47;;;;;;;6.03;1.15;;;8.70;99.90;;;;;;4916016;29;20053;-80
2022/04/09 08:26:13;;;;;;;12.98;1.33;;;8.60;99.90;;;;;;4891610;29;20047;-80
2022/04/09 08:28:39;;;;;;;8.95;1.38;;;8.10;99.90;;;;;;4905398;29;20043;-80
2022/04/09 08:31:06;;;;;;;8.75;1.17;;;7.70;99.90;;;;;;4901179;29;20464;-79
2022/04/09 08:33:31;;;;;;;2.45;0.50;;;7.30;99.90;;;;;;4916778;29;20111;-80
2022/04/09 08:35:57;;;;;;;3.30;0.30;;;6.80;99.90;;;;;;4917107;29;20309;-81
2022/04/09 08:38:23;;;;;;;2.08;0.22;;;6.80;99.90;;;;;;4918115;29;20125;-80
2022/04/09 08:40:49;;;;;;;3.15;0.40;;;6.60;99.90;;;;;;4918026;29;20160;-80
2022/04/09 08:43:15;;;;;;;1.55;0.38;;;6.60;99.90;;;;;;4901654;29;20525;-79
2022/04/09 08:45:41;;;;;;;4.90;0.45;;;6.70;99.90;;;;;;4902016;29;20071;-80
2022/04/09 08:48:08;;;;;;;4.45;0.52;;;7.00;99.90;;;;;;4918811;29;20048;-81
2022/04/09 08:50:37;;;;;;;4.80;0.75;;;7.20;99.90;;;;;;4901841;29;20147;-79
2022/04/09 08:53:08;;;;;;;6.28;0.80;;;7.50;99.90;;;;;;4901965;29;20048;-80
2022/04/09 08:55:37;;;;;;;9.05;1.48;;;7.70;99.90;;;;;;4918465;29;20055;-80
2022/04/09 08:58:04;;;;;;;11.73;1.40;;;8.00;99.90;;;;;;4901567;29;20044;-80
2022/04/09 09:00:30;;;;;;;10.85;1.38;;;8.20;99.90;;;;;;4918874;29;20040;-80
2022/04/09 09:02:58;;;;;;;12.23;2.08;;;8.30;99.90;;;;;;4918331;29;20048;-80
2022/04/09 09:05:32;;;;;;;4.97;1.33;;;8.50;99.90;;;;;;4901590;29;20056;-79
2022/04/09 09:07:58;;;;;;;8.27;1.20;;;8.70;99.90;;;;;;4918230;29;20040;-79
2022/04/09 09:10:23;;;;;;;9.77;2.47;;;8.80;99.90;;;;;;4917746;29;20036;-80
2022/04/09 09:13:03;;;;;;;9.10;1.35;;;8.80;99.90;;;;;;4916793;29;20448;-80
2022/04/09 09:15:29;;;;;;;7.30;1.00;;;8.70;99.90;;;;;;4916966;29;20048;-79
2022/04/09 09:17:59;;;;;;;5.22;1.27;;;8.50;99.90;;;;;;4917483;29;20051;-79
2022/04/09 09:20:25;;;;;;;7.78;1.10;;;8.20;99.90;;;;;;4918271;29;20048;-79
2022/04/09 09:22:52;;;;;;;3.60;0.70;;;8.00;99.90;;;;;;4918452;29;20048;-79
2022/04/09 09:25:17;;;;;;;3.05;0.30;;;7.80;99.90;;;;;;4900918;29;20084;-79
2022/04/09 09:27:43;;;;;;;4.13;0.50;;;7.50;99.90;;;;;;4902319;29;20082;-79
2022/04/09 09:30:11;;;;;;;3.13;0.43;;;7.10;99.90;;;;;;4904652;29;20107;-79
2022/04/09 09:32:41;;;;;;;0.75;0.10;;;6.80;99.90;;;;;;4903739;29;20048;-79
2022/04/09 09:35:09;;;;;;;4.50;0.35;;;6.60;99.90;;;;;;4905053;29;20067;-79
2022/04/09 09:37:35;;;;;;;1.17;0.28;;;6.40;99.90;;;;;;4921910;29;20044;-80
2022/04/09 09:40:01;;;;;;;2.40;0.73;;;6.40;99.90;;;;;;4921293;29;20056;-81
2022/04/09 09:42:26;;;;;;;0.68;0.20;;;6.50;99.90;;;;;;4904939;29;20056;-79
2022/04/09 09:44:53;;;;;;;3.05;1.02;;;6.50;99.90;;;;;;4904987;29;20059;-81
2022/04/09 09:47:18;;;;;;;2.95;0.73;;;6.60;99.90;;;;;;4904199;29;20059;-80
2022/04/09 09:49:56;;;;;;;6.22;0.65;;;6.60;99.90;;;;;;4903971;29;20056;-80
2022/04/09 09:52:26;;;;;;;3.55;0.60;;;6.60;99.90;;;;;;4921543;29;20504;-80
2022/04/09 09:55:16;;;;;;;8.20;0.82;;;6.80;99.90;;;;;;4921481;29;20044;-81
2022/04/09 09:57:46;;;;;;;4.18;0.45;;;7.00;99.90;;;;;;4904664;29;20048;-80
2022/04/09 10:00:14;;;;;;;1.73;0.52;;;7.00;99.90;;;;;;4904546;29;20048;-80
2022/04/09 10:02:40;;;;;;;2.83;0.40;;;7.00;99.90;;;;;;4903191;29;20087;-81
2022/04/09 10:05:07;;;;;;;9.57;1.73;;;7.00;99.90;;;;;;4920275;29;20139;-81
2022/04/09 10:07:34;;;;;;;7.93;0.85;;;7.10;99.90;;;;;;4921161;29;20040;-81
2022/04/09 10:10:06;;;;;;;2.38;0.47;;;7.30;99.90;;;;;;4904552;29;20040;-81
2022/04/09 10:12:41;;;;;;;3.72;0.70;;;7.30;99.90;;;;;;4904624;29;20075;-82
2022/04/09 10:15:07;;;;;;;6.57;0.52;;;7.20;99.90;;;;;;4904313;29;20048;-82
2022/04/09 10:17:34;;;;;;;5.20;0.63;;;7.10;99.90;;;;;;4921332;29;20054;-81
2022/04/09 10:20:02;;;;;;;5.80;0.70;;;7.20;99.90;;;;;;4921252;29;20047;-82
2022/04/09 10:22:31;;;;;;;8.25;1.00;;;7.40;99.90;;;;;;4903766;29;20106;-81
2022/04/09 10:24:59;;;;;;;8.30;0.90;;;7.50;99.90;;;;;;4903886;29;20103;-80
2022/04/09 10:27:40;;;;;;;5.35;0.60;;;7.80;99.90;;;;;;4921236;29;20068;-81
2022/04/09 10:30:12;;;;;;;8.68;0.68;;;8.00;99.90;;;;;;4904223;29;20044;-81
2022/04/09 10:33:07;;;;;;;9.95;0.90;;;8.20;99.90;;;;;;4919056;29;20051;-80
2022/04/09 10:35:40;;;;;;;7.75;0.95;;;8.30;99.90;;;;;;4882037;29;20056;-81
2022/04/09 10:38:14;;;;;;;7.25;0.95;;;8.60;99.90;;;;;;4919844;29;20051;-80
2022/04/09 10:40:43;;;;;;;8.32;1.30;;;8.70;99.90;;;;;;4903292;29;20056;-81
2022/04/09 10:43:21;;;;;;;9.00;1.17;;;8.80;99.90;;;;;;4919690;29;20412;-81
2022/04/09 10:46:05;;;;;;;8.00;1.02;;;8.70;99.90;;;;;;4903551;29;20119;-81
2022/04/09 10:48:33;;;;;;;8.35;1.33;;;8.80;99.90;;;;;;4903913;29;20048;-80
2022/04/09 10:51:08;;;;;;;12.32;2.25;;;9.00;99.90;;;;;;4903784;29;20100;-80
2022/04/09 10:53:44;;;;;;;7.53;1.30;;;9.10;99.90;;;;;;4920458;29;20083;-81
2022/04/09 10:56:17;;;;;;;4.55;0.95;;;9.10;99.90;;;;;;4903569;29;20099;-81
2022/04/09 10:59:13;;;;;;;11.07;1.48;;;8.90;99.90;;;;;;4903597;29;20052;-81
2022/04/09 11:01:47;;;;;;;7.47;1.38;;;9.00;99.90;;;;;;4903491;29;20052;-81
2022/04/09 11:04:37;;;;;;;9.95;1.52;;;8.90;99.90;;;;;;4902803;29;20051;-81
2022/04/09 11:07:16;;;;;;;6.88;1.33;;;9.00;99.90;;;;;;4903535;29;20083;-81
2022/04/09 11:09:56;;;;;;;7.97;1.08;;;9.20;99.90;;;;;;4920694;29;20055;-80
2022/04/09 11:12:28;;;;;;;6.43;0.90;;;9.20;99.90;;;;;;4919794;29;20036;-81
2022/04/09 11:14:58;;;;;;;8.05;1.25;;;9.30;99.90;;;;;;4901842;29;20192;-81
2022/04/09 11:17:25;;;;;;;6.80;0.93;;;9.40;99.90;;;;;;4919930;29;20086;-81
2022/04/09 11:19:52;;;;;;;9.70;1.20;;;9.40;99.90;;;;;;4919792;29;20151;-81
2022/04/09 11:22:20;;;;;;;9.63;1.58;;;9.30;99.90;;;;;;4902977;29;20052;-80
2022/04/09 11:24:46;;;;;;;10.48;1.77;;;9.20;99.90;;;;;;4902807;29;20055;-81
2022/04/09 11:27:12;;;;;;;6.80;0.80;;;9.30;99.90;;;;;;4919661;29;20555;-80
2022/04/09 11:29:42;;;;;;;7.97;1.08;;;9.30;99.90;;;;;;4902907;29;20168;-80
2022/04/09 11:32:18;;;;;;;8.20;0.93;;;9.40;99.90;;;;;;4919482;29;20400;-80
2022/04/09 11:34:48;;;;;;;9.43;1.90;;;9.30;99.90;;;;;;4902196;29;20492;-80
2022/04/09 11:37:14;;;;;;;7.38;0.85;;;9.30;99.90;;;;;;4919457;29;20048;-80
2022/04/09 11:39:41;;;;;;;9.98;0.95;;;9.20;99.90;;;;;;4902572;29;20047;-80
2022/04/09 11:42:07;;;;;;;4.85;0.55;;;9.10;99.90;;;;;;4919773;29;20104;-81
2022/04/09 11:44:33;;;;;;;5.63;0.93;;;9.20;99.90;;;;;;4919413;29;20123;-81
2022/04/09 11:47:12;;;;;;;8.43;0.90;;;9.20;99.90;;;;;;4902461;29;20543;-80
2022/04/09 11:49:38;;;;;;;4.00;0.60;;;9.30;99.90;;;;;;4918968;29;20471;-81
2022/04/09 11:52:05;;;;;;;6.38;0.82;;;9.20;99.90;;;;;;4919505;29;20096;-81
2022/04/09 11:54:32;;;;;;;6.80;1.25;;;9.20;99.90;;;;;;4919247;29;20058;-80
2022/04/09 11:56:59;;;;;;;6.60;1.05;;;9.30;99.90;;;;;;4919069;29;20559;-80
2022/04/09 11:59:24;;;;;;;5.20;0.75;;;9.20;99.90;;;;;;4902324;29;20429;-80
2022/04/09 12:01:53;;;;;;;4.05;0.98;;;9.30;99.90;;;;;;4902200;29;20048;-79
2022/04/09 12:04:22;;;;;;;9.00;1.05;;;9.30;99.90;;;;;;4917810;29;20047;-79
2022/04/09 12:06:49;;;;;;;10.35;0.90;;;9.00;99.90;;;;;;4918890;29;20051;-79
2022/04/09 12:09:14;;;;;;;9.13;1.63;;;9.10;99.90;;;;;;4913703;29;20051;-80
2022/04/09 12:11:52;;;;;;;5.85;1.23;;;9.00;99.90;;;;;;4882058;29;20052;-79
2022/04/09 12:14:18;;;;;;;6.10;0.77;;;9.10;99.90;;;;;;4880734;29;20118;-80
2022/04/09 12:16:44;;;;;;;7.78;1.10;;;9.20;99.90;;;;;;4898391;29;20048;-80
2022/04/09 12:19:09;;;;;;;9.30;1.40;;;9.30;99.90;;;;;;4898810;29;20049;-79
2022/04/09 12:21:36;;;;;;;5.38;0.90;;;9.30;99.90;;;;;;4899975;29;20084;-79
2022/04/09 12:24:12;;;;;;;9.10;0.73;;;9.30;99.90;;;;;;4899521;29;20104;-80
2022/04/09 12:26:39;;;;;;;6.15;1.20;;;9.40;99.90;;;;;;4899500;29;20441;-80
2022/04/09 12:29:23;;;;;;;4.70;0.88;;;9.50;99.90;;;;;;4883053;29;20044;-80
2022/04/09 12:31:51;;;;;;;8.35;0.90;;;9.60;99.90;;;;;;4882724;29;20508;-80
2022/04/09 12:34:21;;;;;;;6.70;0.98;;;9.70;99.90;;;;;;4897985;29;20048;-78
2022/04/09 12:37:00;;;;;;;6.03;1.50;;;9.70;99.90;;;;;;4881762;29;20044;-80
2022/04/09 12:39:27;;;;;;;4.22;1.52;;;9.60;99.90;;;;;;4881396;29;20625;-79
2022/04/09 12:41:53;;;;;;;6.47;1.23;;;9.50;99.90;;;;;;4898013;29;20408;-77
2022/04/09 12:44:26;;;;;;;8.18;0.77;;;9.60;99.90;;;;;;4898838;29;20049;-78
2022/04/09 12:46:53;;;;;;;5.90;1.60;;;9.60;99.90;;;;;;4882623;29;20131;-77
2022/04/09 12:49:20;;;;;;;6.85;1.25;;;9.60;99.90;;;;;;4899276;29;20051;-77
2022/04/09 12:51:46;;;;;;;13.50;1.80;;;9.50;99.90;;;;;;4898984;29;20057;-78
2022/04/09 12:54:12;;;;;;;8.52;1.17;;;9.60;99.90;;;;;;4899068;29;20047;-77
2022/04/09 12:56:39;;;;;;;8.48;1.38;;;9.50;99.90;;;;;;4899174;29;20044;-77